Time;durP1;ratioP1;P1;durP2;ratioP2;P2;SDS_P1;SDS_P2;PMS_P1;PMS_P2;Temp;Humidity;BMP_temperature;BMP_pressure;BME280_temperature;BME280_humidity;BME280_pressure;Samples;Min_cycle;Max_cycle;Signal;HPM_P1;HPM_P2
2023/05/31 00:00:20;;;;;;;5.23;3.10;;;;;;;-145.18;100.00;46666.25;5050480;28;20029;-59
2023/05/31 00:02:45;;;;;;;5.40;3.37;;;;;;;-145.18;100.00;46668.22;5026978;28;20017;-59
2023/05/31 00:05:11;;;;;;;9.13;4.27;;;;;;;-145.18;100.00;46664.31;5065031;28;20078;-58
2023/05/31 00:07:36;;;;;;;6.10;3.33;;;;;;;-145.18;100.00;46658.44;5025245;28;20391;-59
2023/05/31 00:10:02;;;;;;;9.50;4.60;;;;;;;-145.18;100.00;46658.44;5052784;28;20032;-59
2023/05/31 00:12:27;;;;;;;6.80;3.50;;;;;;;-145.18;100.00;46658.44;5061377;28;20033;-59
2023/05/31 00:14:53;;;;;;;6.17;3.50;;;;;;;-145.18;100.00;46662.34;5031004;28;20049;-59
2023/05/31 00:17:18;;;;;;;8.50;3.60;;;;;;;-145.18;100.00;46658.44;5035559;28;20424;-59
2023/05/31 00:19:44;;;;;;;6.80;3.77;;;;;;;-145.18;100.00;46656.50;5061588;28;20025;-59
2023/05/31 00:22:10;;;;;;;7.03;4.37;;;;;;;-145.18;100.00;46652.59;5052088;28;20028;-59
2023/05/31 00:24:35;;;;;;;6.33;3.40;;;;;;;-145.18;100.00;46658.44;5054861;28;20027;-58
2023/05/31 00:27:01;;;;;;;5.87;3.47;;;;;;;-145.18;100.00;46650.63;5063763;28;20025;-59
2023/05/31 00:29:27;;;;;;;5.83;3.40;;;;;;;-145.18;100.00;46650.63;5052218;28;20032;-59
2023/05/31 00:31:52;;;;;;;7.57;3.23;;;;;;;-145.18;100.00;46648.69;5061342;28;20420;-59
2023/05/31 00:34:18;;;;;;;6.10;3.43;;;;;;;-145.18;100.00;46650.63;5060823;28;20045;-59
2023/05/31 00:36:43;;;;;;;7.80;3.47;;;;;;;-145.18;100.00;46652.59;5060195;28;20099;-59
2023/05/31 00:39:08;;;;;;;7.63;3.87;;;;;;;-145.18;100.00;46654.53;5023834;28;20155;-59
2023/05/31 00:41:34;;;;;;;6.93;3.70;;;;;;;-145.18;100.00;46648.69;5055963;28;20051;-59
2023/05/31 00:43:59;;;;;;;7.13;3.80;;;;;;;-145.18;100.00;46656.50;5055451;28;20029;-59
2023/05/31 00:46:31;;;;;;;7.90;3.70;;;;;;;-145.18;100.00;46652.59;5055513;28;20509;-59
2023/05/31 00:48:57;;;;;;;8.83;3.80;;;;;;;-145.18;100.00;46650.63;5040969;28;20108;-59
2023/05/31 00:51:26;;;;;;;7.57;4.17;;;;;;;-145.18;100.00;46648.69;5066511;28;20051;-59
2023/05/31 00:53:51;;;;;;;10.30;4.07;;;;;;;-145.18;100.00;46648.69;5056913;28;20505;-59
2023/05/31 00:56:18;;;;;;;12.80;4.80;;;;;;;-145.18;100.00;46648.69;5047312;28;20056;-59
2023/05/31 00:58:45;;;;;;;8.30;4.43;;;;;;;-145.18;100.00;46650.63;5053229;28;20053;-58
2023/05/31 01:01:12;;;;;;;9.07;3.63;;;;;;;-145.18;100.00;46654.53;5066036;28;20473;-59
2023/05/31 01:03:39;;;;;;;10.27;4.33;;;;;;;-145.18;100.00;46648.69;5074575;28;20025;-59
2023/05/31 01:06:05;;;;;;;7.83;3.97;;;;;;;-145.18;100.00;46652.59;5063421;28;20596;-59
2023/05/31 01:08:30;;;;;;;7.30;4.17;;;;;;;-145.18;100.00;46648.69;5047878;28;20117;-59
2023/05/31 01:11:03;;;;;;;8.70;4.33;;;;;;;-145.18;100.00;46648.69;5054794;28;20032;-59
2023/05/31 01:13:31;;;;;;;11.53;4.43;;;;;;;-145.18;100.00;46644.78;5054978;28;20446;-59
2023/05/31 01:16:06;;;;;;;7.23;4.07;;;;;;;-145.18;100.00;46644.78;5054994;28;20032;-60
2023/05/31 01:18:39;;;;;;;6.60;3.85;;;;;;;-145.18;100.00;46646.72;5047007;28;20510;-59
2023/05/31 01:21:05;;;;;;;9.37;4.33;;;;;;;-145.18;100.00;46644.78;5049594;28;20036;-60
2023/05/31 01:23:40;;;;;;;8.87;4.60;;;;;;;-145.18;100.00;46679.94;5046795;28;20270;-59
2023/05/31 01:26:27;;;;;;;10.80;4.63;;;;;;;-145.18;100.00;46642.81;5048524;28;20041;-59
2023/05/31 01:28:57;;;;;;;7.80;4.27;;;;;;;-145.18;100.00;46646.72;5039372;28;20029;-59
2023/05/31 01:31:22;;;;;;;7.97;4.17;;;;;;;-145.18;100.00;46646.72;5049849;28;20268;-59
2023/05/31 01:33:51;;;;;;;10.07;4.43;;;;;;;-145.18;100.00;46646.72;5059531;28;20057;-59
2023/05/31 01:36:17;;;;;;;7.77;4.17;;;;;;;-145.18;100.00;46642.81;5024856;28;20037;-59
2023/05/31 01:38:42;;;;;;;8.67;4.40;;;;;;;-145.18;100.00;46648.69;5049587;28;20335;-60
2023/05/31 01:41:08;;;;;;;10.47;4.20;;;;;;;-145.18;100.00;46681.88;5053901;28;20087;-60
2023/05/31 01:43:37;;;;;;;7.17;4.37;;;;;;;-145.18;100.00;46644.78;5047320;28;20458;-60
2023/05/31 01:46:04;;;;;;;8.40;4.63;;;;;;;-145.18;100.00;46646.72;5054045;28;20266;-59
2023/05/31 01:48:30;;;;;;;7.37;4.40;;;;;;;-145.18;100.00;46644.78;5067812;28;20032;-60
2023/05/31 01:50:58;;;;;;;6.27;3.63;;;;;;;-145.18;100.00;46642.81;5058216;28;20025;-59
2023/05/31 01:53:25;;;;;;;8.03;4.10;;;;;;;-145.18;100.00;46640.88;5048693;28;20487;-60
2023/05/31 01:55:51;;;;;;;6.93;3.83;;;;;;;-145.18;100.00;46644.78;5054377;28;20597;-60
2023/05/31 01:58:17;;;;;;;9.57;3.77;;;;;;;-145.18;100.00;46646.72;5054481;28;20044;-59
2023/05/31 02:00:43;;;;;;;10.50;5.03;;;;;;;-145.18;100.00;46646.72;5066319;28;20029;-59
2023/05/31 02:03:09;;;;;;;6.93;3.77;;;;;;;-145.18;100.00;46648.69;5054189;28;20273;-59
2023/05/31 02:05:35;;;;;;;8.20;4.70;;;;;;;-145.18;100.00;46642.81;5047235;28;20478;-60
2023/05/31 02:08:00;;;;;;;8.20;4.40;;;;;;;-145.18;100.00;46640.88;5033970;28;20281;-59
2023/05/31 02:10:26;;;;;;;7.13;4.00;;;;;;;-145.18;100.00;46650.63;5053930;28;20068;-59
2023/05/31 02:12:53;;;;;;;8.60;4.07;;;;;;;-145.18;100.00;46650.63;5040838;28;20100;-59
2023/05/31 02:15:19;;;;;;;11.53;4.60;;;;;;;-145.18;100.00;46646.72;5054091;28;20029;-59
2023/05/31 02:17:46;;;;;;;7.77;4.87;;;;;;;-145.18;100.00;46644.78;5053590;28;20048;-59
2023/05/31 02:20:15;;;;;;;10.47;5.17;;;;;;;-145.18;100.00;46679.94;5058158;28;20037;-59
2023/05/31 02:22:41;;;;;;;9.53;3.97;;;;;;;-145.18;100.00;46644.78;5049911;28;20478;-59
2023/05/31 02:25:11;;;;;;;6.57;3.77;;;;;;;-145.18;100.00;46646.72;5060158;28;20263;-59
2023/05/31 02:27:37;;;;;;;8.07;4.67;;;;;;;-145.18;100.00;46679.94;5042657;28;20490;-59
2023/05/31 02:30:06;;;;;;;9.47;4.93;;;;;;;-145.18;100.00;46642.81;5045899;28;20293;-59
2023/05/31 02:32:37;;;;;;;10.60;5.33;;;;;;;-145.18;100.00;46679.94;5049959;28;20254;-60
2023/05/31 02:35:10;;;;;;;8.37;4.20;;;;;;;-145.18;100.00;46679.94;5053328;28;20052;-59
2023/05/31 02:37:36;;;;;;;10.10;4.50;;;;;;;-145.18;100.00;46679.94;5052075;28;20309;-60
2023/05/31 02:40:07;;;;;;;8.30;4.50;;;;;;;-145.18;100.00;46642.81;5053385;28;20029;-59
2023/05/31 02:42:32;;;;;;;10.33;5.10;;;;;;;-145.18;100.00;46646.72;5054221;28;20324;-59
2023/05/31 02:44:58;;;;;;;11.37;5.23;;;;;;;-145.18;100.00;46640.88;5045373;28;20683;-59
2023/05/31 02:47:23;;;;;;;8.37;4.47;;;;;;;-145.18;100.00;46642.81;5044523;28;20459;-59
2023/05/31 02:49:49;;;;;;;10.47;5.20;;;;;;;-145.18;100.00;46642.81;5051222;28;20044;-60
2023/05/31 02:52:14;;;;;;;10.90;4.90;;;;;;;-145.18;100.00;46679.94;5050154;28;20104;-59
2023/05/31 02:54:40;;;;;;;12.33;5.53;;;;;;;-145.18;100.00;46644.78;5048830;28;20394;-60
2023/05/31 02:57:05;;;;;;;10.60;4.67;;;;;;;-145.18;100.00;46642.81;5063965;28;20112;-59
2023/05/31 02:59:30;;;;;;;10.13;5.03;;;;;;;-145.18;100.00;46642.81;5049272;28;20051;-60
2023/05/31 03:01:56;;;;;;;11.50;5.27;;;;;;;-145.18;100.00;46644.78;5072571;28;20481;-60
2023/05/31 03:04:21;;;;;;;13.13;5.50;;;;;;;-145.18;100.00;46642.81;5053315;28;20040;-59
2023/05/31 03:06:47;;;;;;;12.47;5.43;;;;;;;-145.18;100.00;46677.97;5052865;28;20033;-59
2023/05/31 03:09:16;;;;;;;9.37;5.13;;;;;;;-145.18;100.00;46679.94;5052725;28;20033;-59
2023/05/31 03:11:43;;;;;;;12.43;5.43;;;;;;;-145.18;100.00;46677.97;5052676;28;20478;-60
2023/05/31 03:14:08;;;;;;;10.00;5.33;;;;;;;-145.18;100.00;46640.88;5055095;28;20289;-60
2023/05/31 03:16:34;;;;;;;12.03;5.80;;;;;;;-145.18;100.00;46642.81;5062012;28;20288;-59
2023/05/31 03:19:00;;;;;;;11.93;6.17;;;;;;;-145.18;100.00;46640.88;5032491;28;20024;-60
2023/05/31 03:21:25;;;;;;;14.40;5.40;;;;;;;-145.18;100.00;46638.91;5032593;28;20467;-59
2023/05/31 03:23:50;;;;;;;14.70;6.17;;;;;;;-145.18;100.00;46640.88;5030543;28;20040;-60
2023/05/31 03:26:16;;;;;;;13.30;5.80;;;;;;;-145.18;100.00;46642.81;5064121;28;20845;-60
2023/05/31 03:28:41;;;;;;;16.27;5.60;;;;;;;-145.18;100.00;46642.81;5034697;28;20021;-60
2023/05/31 03:31:07;;;;;;;12.07;5.07;;;;;;;-145.18;100.00;46640.88;5051877;28;20029;-60
2023/05/31 03:33:32;;;;;;;11.47;5.53;;;;;;;-145.18;100.00;46640.88;5052174;28;20045;-60
2023/05/31 03:35:57;;;;;;;12.27;5.83;;;;;;;-145.18;100.00;46677.97;5033893;28;20064;-60
2023/05/31 03:38:23;;;;;;;12.27;5.53;;;;;;;-145.18;100.00;46642.81;5042974;28;20498;-60
2023/05/31 03:40:48;;;;;;;11.90;5.43;;;;;;;-145.18;100.00;46642.81;5054336;28;20437;-60
2023/05/31 03:43:14;;;;;;;10.23;5.27;;;;;;;-145.18;100.00;46644.78;5044244;28;20053;-59
2023/05/31 03:45:39;;;;;;;10.13;4.70;;;;;;;-145.18;100.00;46642.81;5047245;28;20487;-60
2023/05/31 03:48:04;;;;;;;10.83;5.60;;;;;;;-145.18;100.00;46642.81;5043906;28;20117;-60
2023/05/31 03:50:30;;;;;;;10.80;5.77;;;;;;;-145.18;100.00;46640.88;5051793;28;20111;-60
2023/05/31 03:52:55;;;;;;;12.93;5.80;;;;;;;-145.18;100.00;46644.78;5034160;28;20045;-60
2023/05/31 03:55:20;;;;;;;11.53;5.47;;;;;;;-145.18;100.00;46642.81;5035615;28;20047;-59
2023/05/31 03:57:46;;;;;;;11.70;6.13;;;;;;;-145.18;100.00;46642.81;5046426;28;20116;-60
2023/05/31 04:00:12;;;;;;;16.60;6.20;;;;;;;-145.18;100.00;46644.78;5050116;28;20033;-60
2023/05/31 04:02:38;;;;;;;14.77;5.77;;;;;;;-145.18;100.00;46638.91;5039038;28;20083;-60
2023/05/31 04:05:04;;;;;;;13.50;5.57;;;;;;;-145.18;100.00;46640.88;5043549;28;20263;-60
2023/05/31 04:07:30;;;;;;;10.43;5.70;;;;;;;-145.18;100.00;46642.81;5051437;28;20262;-60
2023/05/31 04:09:55;;;;;;;12.23;5.40;;;;;;;-145.18;100.00;46640.88;5052117;28;20040;-60
2023/05/31 04:12:20;;;;;;;10.80;5.47;;;;;;;-145.18;100.00;46640.88;5059029;28;20267;-59
2023/05/31 04:14:46;;;;;;;11.27;5.17;;;;;;;-145.18;100.00;46644.78;5017197;28;20045;-59
2023/05/31 04:17:11;;;;;;;13.27;5.27;;;;;;;-145.18;100.00;46642.81;5036019;28;20029;-59
2023/05/31 04:19:37;;;;;;;14.83;6.33;;;;;;;-145.18;100.00;46646.72;5046783;28;20379;-59
2023/05/31 04:22:03;;;;;;;11.83;6.17;;;;;;;-145.18;100.00;46640.88;5036540;28;20102;-60
2023/05/31 04:24:28;;;;;;;9.13;5.00;;;;;;;-145.18;100.00;46644.78;5034364;28;20496;-60
2023/05/31 04:26:54;;;;;;;16.77;6.23;;;;;;;-145.18;100.00;46638.91;5029065;28;20302;-59
2023/05/31 04:29:20;;;;;;;12.63;5.70;;;;;;;-145.18;100.00;46640.88;5040939;28;20029;-60
2023/05/31 04:31:45;;;;;;;12.10;6.50;;;;;;;-145.18;100.00;46638.91;5046715;28;20257;-61
2023/05/31 04:34:17;;;;;;;14.60;6.23;;;;;;;-145.18;100.00;46646.72;5042309;28;20140;-60
2023/05/31 04:36:44;;;;;;;12.93;6.50;;;;;;;-145.18;100.00;46642.81;5051117;28;20027;-60
2023/05/31 04:39:14;;;;;;;15.10;6.63;;;;;;;-145.18;100.00;46644.78;5037524;28;20262;-59
2023/05/31 04:41:40;;;;;;;13.17;6.10;;;;;;;-145.18;100.00;46640.88;5051378;28;20343;-60
2023/05/31 04:44:05;;;;;;;15.07;6.77;;;;;;;-145.18;100.00;46642.81;5035953;28;20286;-59
2023/05/31 04:46:31;;;;;;;12.80;6.40;;;;;;;-145.18;100.00;46644.78;5065824;28;20158;-60
2023/05/31 04:48:57;;;;;;;10.83;6.10;;;;;;;-145.18;100.00;46648.69;5032122;28;20033;-60
2023/05/31 04:51:23;;;;;;;10.10;6.07;;;;;;;-145.18;100.00;46648.69;5053240;28;20276;-60
2023/05/31 04:53:48;;;;;;;10.43;5.80;;;;;;;-145.18;100.00;46644.78;5042494;28;20065;-58
2023/05/31 04:56:14;;;;;;;11.13;5.57;;;;;;;-145.18;100.00;46646.72;5051586;28;20033;-60
2023/05/31 04:58:40;;;;;;;13.67;5.93;;;;;;;-145.18;100.00;46652.59;5052631;28;20028;-60
2023/05/31 05:01:06;;;;;;;14.53;5.33;;;;;;;-145.18;100.00;46646.72;5063651;28;20040;-59
2023/05/31 05:03:32;;;;;;;12.00;6.20;;;;;;;-145.18;100.00;46644.78;5051237;28;20032;-60
2023/05/31 05:06:02;;;;;;;13.80;6.23;;;;;;;-145.18;100.00;46642.81;5051581;28;20258;-60
2023/05/31 05:08:27;;;;;;;10.37;5.40;;;;;;;-145.18;100.00;46648.69;5050045;28;20498;-59
2023/05/31 05:10:52;;;;;;;14.37;6.13;;;;;;;-145.18;100.00;46650.63;5050373;28;20254;-60
2023/05/31 05:13:18;;;;;;;11.90;5.70;;;;;;;-145.18;100.00;46648.69;5033392;28;20116;-60
2023/05/31 05:15:43;;;;;;;13.40;6.30;;;;;;;-145.18;100.00;46646.72;5043578;28;20035;-60
2023/05/31 05:18:09;;;;;;;15.87;6.53;;;;;;;-145.18;100.00;46644.78;5028506;28;20033;-60
2023/05/31 05:20:35;;;;;;;16.50;6.33;;;;;;;-145.18;100.00;46644.78;5055462;28;20029;-61
2023/05/31 05:23:06;;;;;;;13.90;6.77;;;;;;;-145.18;100.00;46644.78;5040030;28;20115;-60
2023/05/31 05:25:33;;;;;;;15.00;6.53;;;;;;;-145.18;100.00;46648.69;5033149;28;20028;-59
2023/05/31 05:27:58;;;;;;;13.33;6.60;;;;;;;-145.18;100.00;46646.72;5047888;28;20264;-59
2023/05/31 05:30:23;;;;;;;11.03;5.93;;;;;;;-145.18;100.00;46650.63;5017096;28;20033;-60
2023/05/31 05:32:49;;;;;;;13.87;6.20;;;;;;;-145.18;100.00;46642.81;5049868;28;20505;-60
2023/05/31 05:35:14;;;;;;;14.33;7.07;;;;;;;-145.18;100.00;46648.69;5044719;28;20083;-60
2023/05/31 05:37:40;;;;;;;10.47;5.73;;;;;;;-145.18;100.00;46648.69;5058783;28;20028;-59
2023/05/31 05:40:06;;;;;;;12.93;7.30;;;;;;;-145.18;100.00;46646.72;5054539;28;20099;-60
2023/05/31 05:42:32;;;;;;;17.03;6.63;;;;;;;-145.18;100.00;46650.63;5041498;28;20029;-60
2023/05/31 05:44:57;;;;;;;13.57;6.73;;;;;;;-145.18;100.00;46648.69;5046278;28;20026;-60
2023/05/31 05:47:23;;;;;;;17.10;6.97;;;;;;;-145.18;100.00;46648.69;5031270;28;20028;-60
2023/05/31 05:49:48;;;;;;;18.00;7.17;;;;;;;-145.18;100.00;46652.59;5036538;28;20127;-59
2023/05/31 05:52:14;;;;;;;14.70;6.87;;;;;;;-145.18;100.00;46654.53;5054752;28;20037;-59
2023/05/31 05:54:39;;;;;;;15.77;6.93;;;;;;;-145.18;100.00;46648.69;5054367;28;20032;-60
2023/05/31 05:57:06;;;;;;;16.67;7.30;;;;;;;-145.18;100.00;46650.63;5054029;28;20057;-59
2023/05/31 05:59:31;;;;;;;14.17;6.93;;;;;;;-145.18;100.00;46654.53;5059829;28;20029;-60
2023/05/31 06:01:56;;;;;;;13.60;7.40;;;;;;;-145.18;100.00;46656.50;5059234;28;20079;-60
2023/05/31 06:04:22;;;;;;;16.27;7.73;;;;;;;-145.18;100.00;46656.50;5061649;28;20537;-59
2023/05/31 06:06:47;;;;;;;14.30;6.77;;;;;;;-145.18;100.00;46654.53;5041973;28;20036;-59
2023/05/31 06:09:13;;;;;;;18.00;7.10;;;;;;;-145.18;100.00;46656.50;5066246;28;20112;-60
2023/05/31 06:11:38;;;;;;;10.73;6.43;;;;;;;-145.18;100.00;46662.34;5053808;28;20078;-60
2023/05/31 06:14:03;;;;;;;14.47;7.20;;;;;;;-145.18;100.00;46668.22;5063278;28;20081;-60
2023/05/31 06:16:29;;;;;;;14.63;6.80;;;;;;;-145.18;100.00;46666.25;5053626;28;20113;-60
2023/05/31 06:18:54;;;;;;;13.43;6.47;;;;;;;-145.18;100.00;46664.31;5061059;28;20033;-60
2023/05/31 06:21:20;;;;;;;18.37;7.60;;;;;;;-145.18;100.00;46660.41;5059542;28;20105;-60
2023/05/31 06:23:45;;;;;;;14.50;6.80;;;;;;;-145.18;100.00;46664.31;5048527;28;20374;-59
2023/05/31 06:26:11;;;;;;;14.60;6.67;;;;;;;-145.18;100.00;46666.25;5045958;28;20542;-60
2023/05/31 06:28:36;;;;;;;11.80;6.67;;;;;;;-145.18;100.00;46668.22;5053857;28;20473;-59
2023/05/31 06:31:02;;;;;;;14.77;7.10;;;;;;;-145.18;100.00;46670.16;5066781;28;20059;-60
2023/05/31 06:33:28;;;;;;;12.47;7.43;;;;;;;-145.18;100.00;46670.16;5052846;28;20029;-60
2023/05/31 06:35:53;;;;;;;16.47;7.27;;;;;;;-145.18;100.00;46664.31;5029248;28;20064;-60
2023/05/31 06:38:21;;;;;;;13.87;6.43;;;;;;;-145.18;100.00;46670.16;5053885;28;20031;-59
2023/05/31 06:40:47;;;;;;;12.73;6.73;;;;;;;-145.18;100.00;46668.22;5044172;28;20391;-60
2023/05/31 06:43:13;;;;;;;14.77;6.67;;;;;;;-145.18;100.00;46660.41;5035769;28;20052;-60
2023/05/31 06:45:41;;;;;;;14.17;7.00;;;;;;;-145.18;100.00;46662.34;5054685;28;20417;-60
2023/05/31 06:48:08;;;;;;;14.43;6.53;;;;;;;-145.18;100.00;46656.50;5048771;28;20083;-60
2023/05/31 06:50:33;;;;;;;16.60;6.83;;;;;;;-145.18;100.00;46654.53;5055621;28;20082;-60
2023/05/31 06:52:59;;;;;;;14.20;7.03;;;;;;;-145.18;100.00;46648.69;5057225;28;20037;-60
2023/05/31 06:55:24;;;;;;;12.13;6.93;;;;;;;-145.18;100.00;46636.94;5048675;28;20024;-60
2023/05/31 06:57:50;;;;;;;11.90;7.20;;;;;;;-145.18;100.00;46631.09;5048033;28;20027;-60
2023/05/31 07:00:16;;;;;;;17.93;7.70;;;;;;;-145.18;100.00;46611.56;5064679;28;20501;-60
2023/05/31 07:02:42;;;;;;;14.97;7.43;;;;;;;-145.18;100.00;46580.31;5066186;28;20103;-60
2023/05/31 07:05:07;;;;;;;15.93;8.00;;;;;;;-145.18;100.00;46578.34;5050398;28;20100;-59
2023/05/31 07:07:32;;;;;;;12.07;6.47;;;;;;;-145.18;100.00;46568.59;5052450;28;20024;-59
2023/05/31 07:09:58;;;;;;;16.30;6.83;;;;;;;-145.18;100.00;46549.06;5057983;28;20113;-60
2023/05/31 07:12:23;;;;;;;14.80;7.03;;;;;;;-145.18;100.00;46541.25;5055488;28;20414;-60
2023/05/31 07:14:49;;;;;;;14.03;6.50;;;;;;;-145.18;100.00;46541.25;5049380;28;20040;-60
2023/05/31 07:17:14;;;;;;;14.63;6.63;;;;;;;-145.18;100.00;46541.25;5051451;28;20025;-60
2023/05/31 07:19:47;;;;;;;15.37;7.03;;;;;;;-145.18;100.00;46535.38;5055763;28;20028;-60
2023/05/31 07:22:15;;;;;;;15.70;6.80;;;;;;;-145.18;100.00;46537.34;5038272;28;20037;-60
2023/05/31 07:24:41;;;;;;;16.43;8.20;;;;;;;-145.18;100.00;46531.47;5060813;28;20024;-59
2023/05/31 07:27:07;;;;;;;14.47;7.10;;;;;;;-145.18;100.00;46537.34;5059842;28;20364;-60
2023/05/31 07:29:33;;;;;;;16.50;6.83;;;;;;;-145.18;100.00;46533.44;5059061;28;20025;-60
2023/05/31 07:31:58;;;;;;;17.47;7.53;;;;;;;-145.18;100.00;46543.19;5039997;28;20029;-60
2023/05/31 07:34:23;;;;;;;11.87;6.83;;;;;;;-145.18;100.00;46543.19;5051424;28;20051;-60
2023/05/31 07:36:49;;;;;;;14.67;6.70;;;;;;;-145.18;100.00;46545.16;5031344;28;20045;-60
2023/05/31 07:39:15;;;;;;;14.07;6.53;;;;;;;-145.18;100.00;46552.97;5022027;28;20114;-60
2023/05/31 07:41:41;;;;;;;14.03;6.80;;;;;;;-145.18;100.00;46554.91;5045595;28;20056;-60
2023/05/31 07:44:07;;;;;;;12.67;6.30;;;;;;;-145.18;100.00;46543.19;5057178;28;20060;-60
2023/05/31 07:46:32;;;;;;;10.77;6.00;;;;;;;-145.18;100.00;46551.00;5054556;28;20024;-60
2023/05/31 07:48:58;;;;;;;13.80;6.30;;;;;;;-145.18;100.00;46551.00;5051226;28;20508;-60
2023/05/31 07:51:23;;;;;;;14.67;6.73;;;;;;;-145.18;100.00;46556.88;5055231;28;20045;-60
2023/05/31 07:53:48;;;;;;;13.80;7.00;;;;;;;-145.18;100.00;46560.78;5056005;28;20036;-60
2023/05/31 07:56:14;;;;;;;11.70;6.33;;;;;;;-145.18;100.00;46545.16;5060745;28;20445;-60
2023/05/31 07:58:39;;;;;;;14.17;7.20;;;;;;;-145.18;100.00;46564.69;5054270;28;20040;-60
2023/05/31 08:01:05;;;;;;;12.87;6.30;;;;;;;-145.18;100.00;46566.63;5050955;28;20029;-60
2023/05/31 08:03:31;;;;;;;15.50;7.67;;;;;;;-145.18;100.00;46549.06;5040630;28;20028;-60
2023/05/31 08:05:56;;;;;;;13.50;6.67;;;;;;;-145.18;100.00;46556.88;5049733;28;20044;-60
2023/05/31 08:08:22;;;;;;;12.50;6.47;;;;;;;-145.18;100.00;46558.81;5060386;28;20038;-60
2023/05/31 08:10:47;;;;;;;11.23;6.57;;;;;;;-145.18;100.00;46554.91;5049321;28;20398;-60
2023/05/31 08:13:13;;;;;;;10.83;6.17;;;;;;;-145.18;100.00;46570.53;5026534;28;20036;-61
2023/05/31 08:15:38;;;;;;;13.03;6.87;;;;;;;-145.18;100.00;46566.63;5032854;28;20383;-60
2023/05/31 08:18:04;;;;;;;13.80;6.30;;;;;;;-145.18;100.00;46564.69;5056760;28;20044;-60
2023/05/31 08:20:29;;;;;;;10.07;5.70;;;;;;;-145.18;100.00;46560.78;5042329;28;20048;-60
2023/05/31 08:22:54;;;;;;;12.77;6.43;;;;;;;-145.18;100.00;46582.25;5038407;28;20064;-61
2023/05/31 08:25:22;;;;;;;8.07;5.23;;;;;;;-145.18;100.00;46576.41;5047323;28;20025;-60
2023/05/31 08:27:47;;;;;;;15.70;5.70;;;;;;;-145.18;100.00;46578.34;5055648;28;20085;-60
2023/05/31 08:30:13;;;;;;;12.40;6.80;;;;;;;-145.18;100.00;46592.03;5051341;28;20045;-60
2023/05/31 08:32:40;;;;;;;15.23;5.67;;;;;;;-145.18;100.00;46580.31;5014257;28;20048;-60
2023/05/31 08:35:06;;;;;;;14.60;6.10;;;;;;;-145.18;100.00;46578.34;5059438;28;20136;-60
2023/05/31 08:37:32;;;;;;;12.37;6.43;;;;;;;-145.18;100.00;46607.66;5041341;28;20104;-60
2023/05/31 08:39:58;;;;;;;10.83;6.00;;;;;;;-145.18;100.00;46607.66;5023557;28;20456;-60
2023/05/31 08:42:55;;;;;;;11.07;6.20;;;;;;;-145.18;100.00;46615.47;5038592;28;20041;-60
2023/05/31 08:45:21;;;;;;;12.50;5.83;;;;;;;-145.18;100.00;46603.75;5037625;28;20038;-60
2023/05/31 08:47:58;;;;;;;11.73;5.50;;;;;;;-145.18;100.00;46586.16;5046368;28;20055;-60
2023/05/31 08:50:26;;;;;;;12.23;6.23;;;;;;;-145.18;100.00;46605.69;5050895;28;20508;-60
2023/05/31 08:52:53;;;;;;;18.77;5.97;;;;;;;-145.18;100.00;46640.88;5037126;28;20444;-60
2023/05/31 08:55:19;;;;;;;12.43;6.40;;;;;;;-145.18;100.00;46611.56;5040210;28;20025;-60
2023/05/31 08:57:46;;;;;;;10.40;5.43;;;;;;;-145.18;100.00;46607.66;5049581;28;20104;-60
2023/05/31 09:00:12;;;;;;;13.30;5.87;;;;;;;-145.18;100.00;46674.06;5052593;28;20029;-60
2023/05/31 09:02:38;;;;;;;15.73;6.40;;;;;;;-145.18;100.00;46715.09;5055064;28;20055;-60
2023/05/31 09:05:05;;;;;;;10.67;5.67;;;;;;;-145.18;100.00;46625.22;5063056;28;20029;-60
2023/05/31 09:07:31;;;;;;;12.53;5.30;;;;;;;-145.18;100.00;46654.53;5047768;28;20018;-60
2023/05/31 09:09:56;;;;;;;15.03;6.17;;;;;;;-145.18;100.00;46629.13;5038662;28;20171;-60
2023/05/31 09:12:21;;;;;;;13.10;5.80;;;;;;;-145.18;100.00;46668.22;5047963;28;20107;-60
2023/05/31 09:14:47;;;;;;;12.17;5.73;;;;;;;-145.18;100.00;47152.66;5017301;28;20040;-61
2023/05/31 09:17:13;;;;;;;11.87;5.53;;;;;;;-145.18;100.00;47246.44;5050739;28;20494;-60
2023/05/31 09:19:50;;;;;;;13.07;5.23;;;;;;;-145.18;100.00;47205.41;5048632;28;20513;-60
2023/05/31 09:22:16;;;;;;;11.17;5.90;;;;;;;-145.18;100.00;47187.84;5062299;28;20486;-60
2023/05/31 09:24:54;;;;;;;10.17;5.67;;;;;;;-145.18;100.00;47193.69;5057460;28;20040;-60
2023/05/31 09:27:20;;;;;;;8.23;5.00;;;;;;;-145.18;100.00;47158.53;5040102;28;20033;-60
2023/05/31 09:29:54;;;;;;;11.80;6.00;;;;;;;-145.18;100.00;47146.81;5047098;28;20033;-60
2023/05/31 09:32:19;;;;;;;13.43;4.43;;;;;;;-145.18;100.00;47140.94;5052875;28;20032;-61
2023/05/31 09:34:46;;;;;;;9.10;4.40;;;;;;;-145.18;100.00;47160.47;5041736;28;20053;-60
2023/05/31 09:37:24;;;;;;;9.83;5.10;;;;;;;-145.18;100.00;47131.19;5042456;28;20029;-61
2023/05/31 09:39:54;;;;;;;12.30;4.70;;;;;;;-145.18;100.00;47119.47;5051302;28;20116;-60
2023/05/31 09:42:20;;;;;;;14.57;5.50;;;;;;;-145.18;100.00;47101.88;5047646;28;20032;-61
2023/05/31 09:44:49;;;;;;;13.47;5.17;;;;;;;-145.18;100.00;47096.00;5025476;28;20444;-60
2023/05/31 09:47:14;;;;;;;11.60;4.63;;;;;;;-145.18;100.00;47109.69;5047913;28;20025;-60
2023/05/31 09:49:42;;;;;;;9.80;5.40;;;;;;;-145.18;100.00;47097.97;5036051;28;20033;-60
2023/05/31 09:52:12;;;;;;;7.93;4.63;;;;;;;-145.18;100.00;47097.97;5050160;28;20502;-60
2023/05/31 09:54:37;;;;;;;11.50;4.67;;;;;;;-145.18;100.00;47092.09;5053183;28;20044;-60
2023/05/31 09:57:03;;;;;;;8.30;4.03;;;;;;;-145.18;100.00;47094.06;5048782;28;20635;-60
2023/05/31 09:59:31;;;;;;;10.77;4.43;;;;;;;-145.18;100.00;47074.53;5046715;28;20026;-60
2023/05/31 10:01:57;;;;;;;7.90;3.77;;;;;;;-145.18;100.00;47070.63;5048185;28;20031;-60
2023/05/31 10:04:23;;;;;;;9.57;4.60;;;;;;;-145.18;100.00;47056.94;5030082;28;20061;-61
2023/05/31 10:06:49;;;;;;;7.03;3.83;;;;;;;-145.18;100.00;47074.53;5037014;28;20127;-60
2023/05/31 10:09:15;;;;;;;11.23;4.17;;;;;;;-145.18;100.00;47055.00;5037408;28;20490;-61
2023/05/31 10:11:48;;;;;;;11.30;4.47;;;;;;;-145.18;100.00;47080.38;5041135;28;20136;-60
2023/05/31 10:14:28;;;;;;;6.57;3.37;;;;;;;-145.18;100.00;47070.63;5050265;28;20493;-61
2023/05/31 10:16:56;;;;;;;8.33;3.73;;;;;;;-145.18;100.00;47070.63;5039510;28;20031;-61
2023/05/31 10:19:27;;;;;;;8.63;4.50;;;;;;;-145.18;100.00;47056.94;5046118;28;20035;-60
2023/05/31 10:21:56;;;;;;;9.40;3.50;;;;;;;-145.18;100.00;47055.00;5052012;28;20035;-60
2023/05/31 10:24:33;;;;;;;15.10;4.13;;;;;;;-145.18;100.00;47053.03;5053831;28;20025;-60
2023/05/31 10:27:07;;;;;;;11.40;3.73;;;;;;;-145.18;100.00;47043.28;5053563;28;20039;-60
2023/05/31 10:29:54;;;;;;;8.00;3.50;;;;;;;-145.18;100.00;47033.50;5048802;28;20021;-61
2023/05/31 10:32:23;;;;;;;12.37;3.83;;;;;;;-145.18;100.00;47041.31;5053484;28;20028;-60
2023/05/31 10:34:49;;;;;;;6.07;3.50;;;;;;;-145.18;100.00;47035.44;5061850;28;20056;-60
2023/05/31 10:37:14;;;;;;;6.97;4.23;;;;;;;-145.18;100.00;47039.34;5053194;28;20386;-60
2023/05/31 10:39:57;;;;;;;8.70;3.80;;;;;;;-145.18;100.00;47025.69;5053250;28;20025;-61
2023/05/31 10:42:35;;;;;;;8.40;3.80;;;;;;;-145.18;100.00;47031.53;5056867;28;20113;-60
2023/05/31 10:45:15;;;;;;;8.60;3.60;;;;;;;-145.18;100.00;47023.72;5042602;28;20040;-60
2023/05/31 10:47:51;;;;;;;7.17;3.60;;;;;;;-145.18;100.00;47031.53;5053169;28;20040;-60
2023/05/31 10:50:20;;;;;;;8.27;3.37;;;;;;;-145.18;100.00;47035.44;5052755;28;20386;-60
2023/05/31 10:52:50;;;;;;;9.47;3.17;;;;;;;-145.18;100.00;47023.72;5034986;28;20510;-60
2023/05/31 10:55:20;;;;;;;7.80;3.57;;;;;;;-145.18;100.00;47023.72;5036999;28;20340;-60
2023/05/31 10:57:50;;;;;;;7.47;3.17;;;;;;;-145.18;100.00;47025.69;5037283;28;20558;-60
2023/05/31 11:00:19;;;;;;;7.40;3.47;;;;;;;-145.18;100.00;47012.00;5035414;28;20470;-61
2023/05/31 11:02:48;;;;;;;10.60;3.43;;;;;;;-145.18;100.00;47002.25;5040218;28;20025;-60